Etretat — FIDP — position and weather

sailwx.info

Track history (hours):
 
Tides and Currents Weather Stations Pressure Air Temp Water Temp Dewpoint Dewpoint Depression Visibility Wind Speed Wind Dir Waves Ship Positions

Etretat

Last reported at 2017-Feb-28 07:33 UTC. Time now 2017-Feb-28 07:49 UTC.
Position N 49°29' E 000°07'.

Length 187 m; draft 6 m.

Type: Passenger vessel. MMSI: 228022900.

Date/timePositionNaut miles runAvg speedWind from/ knotsBaromVisibWave heightAir tempDewpointWater temp
2017-Feb-28 07:33N 49°29' E 000°07'8 8.1
2017-Feb-28 06:34N 49°35' W 000°02'1110.9
2017-Feb-28 05:34N 49°45' W 000°09'1312.7
2017-Feb-28 04:34N 49°56' W 000°19'1312.8
2017-Feb-28 03:33N 50°05' W 000°34'2713.5
2017-Feb-28 01:33N 50°30' W 000°50'1211.8
2017-Feb-28 00:33N 50°41' W 000°57'1010.0
2017-Feb-27 23:34N 50°49' W 001°06'0 0.4
2017-Feb-27 22:34N 50°49' W 001°06'0 0.0
2017-Feb-27 21:33N 50°49' W 001°06'7 6.6
2017-Feb-27 20:34N 50°43' W 001°00'1717.3
2017-Feb-27 19:33N 50°29' W 000°45'2119.7
2017-Feb-27 18:29N 50°09' W 000°31'1920.8
2017-Feb-27 17:34N 49°52' W 000°18'2121.4
2017-Feb-27 16:33N 49°34' W 000°02'7 7.1
2017-Feb-27 15:33N 49°29' E 000°07'0 0.0
2017-Feb-27 14:33N 49°29' E 000°07'0 0.0
2017-Feb-27 13:34N 49°29' E 000°07'0 0.0
2017-Feb-27 12:33N 49°29' E 000°07'0 0.0
2017-Feb-27 11:33N 49°29' E 000°07'0 0.0
2017-Feb-27 10:34N 49°29' E 000°07'0 0.0
2017-Feb-27 09:33N 49°29' E 000°07'0 0.0
2017-Feb-27 08:33N 49°29' E 000°07'0 0.0
2017-Feb-27 07:33N 49°29' E 000°07'8 8.1
2017-Feb-27 06:33N 49°35' W 000°02'1110.7
2017-Feb-27 05:33N 49°44' W 000°10'1010.5
2017-Feb-27 04:33N 49°53' W 000°20'1312.8
2017-Feb-27 03:33N 50°03' W 000°30'2712.4
2017-Feb-27 01:23N 50°28' W 000°47'1113.8
2017-Feb-27 00:33N 50°38' W 000°55'1312.7
2017-Feb-26 23:34N 50°48' W 001°07'1 0.7
2017-Feb-26 22:33N 50°49' W 001°06'0 0.0
2017-Feb-26 21:34N 50°49' W 001°06'7 6.9
2017-Feb-26 20:33N 50°43' W 000°60'2518.1
2017-Feb-26 19:11N 50°22' W 000°38'1420.2
2017-Feb-26 18:30N 50°10' W 000°29'1919.5
2017-Feb-26 17:33N 49°53' W 000°18'2020.0
2017-Feb-26 16:33N 49°35' W 000°03'9 8.8
2017-Feb-26 15:33N 49°29' E 000°07'0 0.0
2017-Feb-26 14:33N 49°29' E 000°07'0 0.0
2017-Feb-26 13:33N 49°29' E 000°07'0 0.0
2017-Feb-26 12:33N 49°29' E 000°07'0 0.0
2017-Feb-26 11:33N 49°29' E 000°07'0 0.0
2017-Feb-26 10:33N 49°29' E 000°07'0 0.0
2017-Feb-26 09:33N 49°29' E 000°07'0 0.0
2017-Feb-26 08:33N 49°29' E 000°07'0 0.0
2017-Feb-26 07:33N 49°29' E 000°07'8 7.9
2017-Feb-26 06:33N 49°34' W 000°02'1110.7
2017-Feb-26 05:33N 49°44' W 000°10'1110.8
2017-Feb-26 04:33N 49°53' W 000°18'1312.9
2017-Feb-26 03:33N 50°05' W 000°27'2812.3
2017-Feb-26 01:19N 50°29' W 000°48'912.2
2017-Feb-26 00:34N 50°37' W 000°54'1211.8
2017-Feb-25 23:34N 50°47' W 001°06'2 2.1
2017-Feb-25 22:34N 50°49' W 001°06'0 0.0
2017-Feb-25 21:33N 50°49' W 001°06'7 6.6
2017-Feb-25 20:34N 50°43' W 001°00'1918.5
2017-Feb-25 19:33N 50°28' W 000°44'2120.6
2017-Feb-25 18:33N 50°09' W 000°30'2020.3
2017-Feb-25 17:33N 49°51' W 000°15'2120.6
2017-Feb-25 16:33N 49°33' W 000°01'6 6.1
2017-Feb-25 15:33N 49°29' E 000°07'0 0.0
2017-Feb-25 14:34N 49°29' E 000°07'0 0.0
2017-Feb-25 13:34N 49°29' E 000°07'0 0.0
2017-Feb-25 12:34N 49°29' E 000°07'0 0.0
2017-Feb-25 11:34N 49°29' E 000°07'0 0.0
2017-Feb-25 10:33N 49°29' E 000°07'0 0.0
2017-Feb-25 09:34N 49°29' E 000°07'0 0.0
2017-Feb-25 08:33N 49°29' E 000°07'0 0.0
2017-Feb-25 07:33N 49°29' E 000°07'8 8.1
2017-Feb-25 06:33N 49°35' W 000°02'1211.6
2017-Feb-25 05:33N 49°45' W 000°10'1111.4
2017-Feb-25 04:34N 49°55' W 000°19'1413.7
2017-Feb-25 03:34N 50°07' W 000°29'2613.1
2017-Feb-25 01:33N 50°30' W 000°48'1211.9
2017-Feb-25 00:33N 50°41' W 000°57'10 9.7
2017-Feb-24 23:33N 50°49' W 001°06'0 0.1
2017-Feb-24 22:34N 50°49' W 001°06'0 0.0
2017-Feb-24 21:33N 50°49' W 001°06'7 7.2
2017-Feb-24 20:33N 50°43' W 000°59'1817.7
2017-Feb-24 19:33N 50°28' W 000°44'2120.6
2017-Feb-24 18:32N 50°09' W 000°30'2020.4
2017-Feb-24 17:33N 49°51' W 000°16'2120.8
2017-Feb-24 16:33N 49°33' W 000°01'6 6.0
2017-Feb-24 15:33N 49°29' E 000°07'0 0.0
2017-Feb-24 14:33N 49°29' E 000°07'0 0.0
2017-Feb-24 13:33N 49°29' E 000°07'0 0.0
2017-Feb-24 12:33N 49°29' E 000°07'0 0.0
2017-Feb-24 11:33N 49°29' E 000°07'0 0.0
2017-Feb-24 10:33N 49°29' E 000°07'0 0.0
2017-Feb-24 09:33N 49°29' E 000°07'0 0.0
2017-Feb-24 08:33N 49°29' E 000°07'0 0.0
2017-Feb-24 07:33N 49°29' E 000°07'9 8.7
2017-Feb-24 06:34N 49°35' W 000°02'1312.7
2017-Feb-24 05:33N 49°47' W 000°10'1212.3
2017-Feb-24 04:33N 49°58' W 000°20'3913.1
2017-Feb-24 01:34N 50°32' W 000°50'1312.8
2017-Feb-24 00:34N 50°43' W 001°01'7 6.7
2017-Feb-23 23:33N 50°49' W 001°06'0 0.0
2017-Feb-23 22:33N 50°49' W 001°06'0 0.5
2017-Feb-23 21:33N 50°49' W 001°07'1615.6
2017-Feb-23 20:34N 50°37' W 000°51'2018.5
2017-Feb-23 19:28N 50°22' W 000°29'1617.5
2017-Feb-23 18:33N 50°07' W 000°20'1817.7
2017-Feb-23 17:34N 49°50' W 000°12'1919.3
2017-Feb-23 16:33N 49°32' W 000°00'6 5.6
2017-Feb-23 15:33N 49°29' E 000°07'0 0.0
2017-Feb-23 14:33N 49°29' E 000°07'0 0.0
2017-Feb-23 13:33N 49°29' E 000°07'0 0.0
2017-Feb-23 12:33N 49°29' E 000°07'0 0.0
2017-Feb-23 11:33N 49°29' E 000°07'0 0.0
2017-Feb-23 10:33N 49°29' E 000°07'0 0.0
2017-Feb-23 09:33N 49°29' E 000°07'0 0.0
2017-Feb-23 08:33N 49°29' E 000°07'0 0.0
2017-Feb-23 07:33N 49°29' E 000°07'0 0.0
2017-Feb-23 06:33N 49°29' E 000°07'0 0.0
2017-Feb-23 05:33N 49°29' E 000°07'9 8.6
2017-Feb-23 04:34N 49°35' W 000°03'1818.1
2017-Feb-23 03:33N 49°51' W 000°17'1818.2
2017-Feb-23 02:33N 50°06' W 000°32'2418.4
2017-Feb-23 01:16N 50°26' W 000°52'1318.5
2017-Feb-23 00:34N 50°38' W 001°01'1111.1
2017-Feb-22 23:33N 50°49' W 001°06'0 0.0
2017-Feb-22 22:33N 50°49' W 001°06'0 0.0
2017-Feb-22 21:33N 50°49' W 001°06'9 8.6
2017-Feb-22 20:34N 50°42' W 000°58'3221.2
2017-Feb-22 19:04N 50°14' W 000°35'1121.0
2017-Feb-22 18:33N 50°04' W 000°29'2020.4
2017-Feb-22 17:33N 49°47' W 000°11'1919.4
2017-Feb-22 16:33N 49°30' E 000°03'3 2.6
2017-Feb-22 15:34N 49°29' E 000°07'0 0.0
2017-Feb-22 14:33N 49°29' E 000°07'0 0.0
2017-Feb-22 13:33N 49°29' E 000°07'0 0.0
2017-Feb-22 12:33N 49°29' E 000°07'0 0.0
2017-Feb-22 11:33N 49°29' E 000°07'0 0.0
2017-Feb-22 10:33N 49°29' E 000°07'0 0.0
2017-Feb-22 09:33N 49°29' E 000°07'0 0.0
2017-Feb-22 08:33N 49°29' E 000°07'0 0.0
2017-Feb-22 07:33N 49°29' E 000°07'8 8.0
2017-Feb-22 06:33N 49°35' W 000°02'1110.7
2017-Feb-22 05:33N 49°44' W 000°09'1010.3
2017-Feb-22 04:33N 49°54' W 000°16'1110.8
2017-Feb-22 03:33N 50°03' W 000°26'1110.4
2017-Feb-22 02:27N 50°12' W 000°35'2714.1
2017-Feb-22 00:34N 50°36' W 000°54'1312.6
2017-Feb-21 23:33N 50°47' W 001°06'2 2.2
2017-Feb-21 22:34N 50°49' W 001°06'0 0.0
2017-Feb-21 21:34N 50°49' W 001°06'0 0.0
2017-Feb-21 20:33N 50°49' W 001°06'0 0.0
2017-Feb-21 19:34N 50°49' W 001°06'0 0.0
2017-Feb-21 18:33N 50°49' W 001°06'0 0.0
2017-Feb-21 17:34N 50°49' W 001°06'0 0.1
2017-Feb-21 16:34N 50°49' W 001°06'1110.7
2017-Feb-21 15:33N 50°40' W 000°56'3818.8
2017-Feb-21 13:33N 50°07' W 000°29'2019.8
2017-Feb-21 12:33N 49°48' W 000°17'1919.4
2017-Feb-21 11:33N 49°31' W 000°03'7 6.8
2017-Feb-21 10:33N 49°29' E 000°07'0 0.0
2017-Feb-21 09:33N 49°29' E 000°07'0 0.0
2017-Feb-21 08:33N 49°29' E 000°07'0 0.0
2017-Feb-21 07:33N 49°29' E 000°07'8 8.4
2017-Feb-21 06:33N 49°35' W 000°03'1211.6
2017-Feb-21 05:33N 49°45' W 000°12'1110.9
2017-Feb-21 04:33N 49°55' W 000°19'1211.5
2017-Feb-21 03:32N 50°05' W 000°26'2813.1
2017-Feb-21 01:25N 50°29' W 000°48'1213.7
2017-Feb-21 00:33N 50°40' W 000°56'1110.9
2017-Feb-20 23:33N 50°49' W 001°07'0 0.4
2017-Feb-20 22:33N 50°49' W 001°06'0 0.0
2017-Feb-20 21:33N 50°49' W 001°06'6 5.8
2017-Feb-20 20:33N 50°44' W 001°02'1918.6
2017-Feb-20 19:33N 50°28' W 000°45'2420.1
2017-Feb-20 18:23N 50°07' W 000°29'1720.4
2017-Feb-20 17:33N 49°52' W 000°17'2020.3
2017-Feb-20 16:33N 49°34' W 000°02'8 7.6
2017-Feb-20 15:33N 49°29' E 000°07'0 0.0
2017-Feb-20 14:33N 49°29' E 000°07'0 0.0
2017-Feb-20 13:34N 49°29' E 000°07'0 0.0
2017-Feb-20 12:34N 49°29' E 000°07'0 0.0
2017-Feb-20 11:34N 49°29' E 000°07'0 0.0
2017-Feb-20 10:33N 49°29' E 000°07'0 0.0
2017-Feb-20 09:34N 49°29' E 000°07'0 0.0
2017-Feb-20 08:34N 49°29' E 000°07'0 0.2
2017-Feb-20 07:34N 49°29' E 000°06'9 9.1
2017-Feb-20 06:34N 49°35' W 000°05'9 8.8
2017-Feb-20 05:34N 49°42' W 000°12'9 9.3
2017-Feb-20 04:33N 49°50' W 000°20'1312.9
2017-Feb-20 03:34N 50°02' W 000°24'1413.5
2017-Feb-20 02:32N 50°15' W 000°34'1813.5
2017-Feb-20 01:14N 50°30' W 000°48'913.7
2017-Feb-20 00:34N 50°38' W 000°55'1211.6
2017-Feb-19 23:33N 50°47' W 001°06'2 1.6
2017-Feb-19 22:34N 50°49' W 001°06'0 0.0
2017-Feb-19 21:34N 50°49' W 001°06'7 6.5
2017-Feb-19 20:33N 50°43' W 001°00'2019.0
2017-Feb-19 19:30N 50°26' W 000°43'1919.8
2017-Feb-19 18:33N 50°09' W 000°31'2020.1
2017-Feb-19 17:33N 49°51' W 000°16'2020.4
2017-Feb-19 16:33N 49°34' W 000°01'7 6.8
2017-Feb-19 15:33N 49°29' E 000°07'0 0.0
2017-Feb-19 14:34N 49°29' E 000°07'0 0.0
2017-Feb-19 13:34N 49°29' E 000°07'0 0.0
2017-Feb-19 12:33N 49°29' E 000°07'0 0.0
2017-Feb-19 11:33N 49°29' E 000°07'0 0.0
2017-Feb-19 10:34N 49°29' E 000°07'0 0.0
2017-Feb-19 09:33N 49°29' E 000°07'0 0.0
2017-Feb-19 08:33N 49°29' E 000°07'0 0.0
2017-Feb-19 07:33N 49°29' E 000°07'8 7.9
2017-Feb-19 06:33N 49°34' W 000°02'4 4.4
2017-Feb-19 05:34N 49°38' W 000°05'1413.6
2017-Feb-19 04:34N 49°50' W 000°15'1313.4
2017-Feb-19 03:33N 50°02' W 000°24'1413.6
2017-Feb-19 02:33N 50°15' W 000°32'1413.8
2017-Feb-19 01:32N 50°27' W 000°43'1414.2
2017-Feb-19 00:33N 50°39' W 000°55'1212.1
2017-Feb-18 23:33N 50°48' W 001°07'1 0.8
2017-Feb-18 22:34N 50°49' W 001°06'0 0.0
2017-Feb-18 21:34N 50°49' W 001°06'9 9.2
2017-Feb-18 20:34N 50°41' W 000°57'2322.6
2017-Feb-18 19:33N 50°21' W 000°42'2323.5
2017-Feb-18 18:34N 50°01' W 000°23'2322.8
2017-Feb-18 17:33N 49°40' W 000°07'1111.4
2017-Feb-18 16:33N 49°30' E 000°01'4 3.8
2017-Feb-18 15:33N 49°29' E 000°07'0 0.0
2017-Feb-18 14:33N 49°29' E 000°07'0 0.0
2017-Feb-18 13:33N 49°29' E 000°07'0 0.0
2017-Feb-18 12:33N 49°29' E 000°07'0 0.0
2017-Feb-18 11:33N 49°29' E 000°07'0 0.0
2017-Feb-18 10:33N 49°29' E 000°07'0 0.0
2017-Feb-18 09:33N 49°29' E 000°07'0 0.0
2017-Feb-18 08:33N 49°29' E 000°07'  
Track history (hours):
 
Tides and Currents Weather Stations Pressure Air Temp Water Temp Dewpoint Dewpoint Depression Visibility Wind Speed Wind Dir Waves Ship Positions

Etretat

Last reported at 2017-Feb-28 07:33 UTC. Time now 2017-Feb-28 07:49 UTC.
Position N 49°29' E 000°07'.

Length 187 m; draft 6 m.

Type: Passenger vessel. MMSI: 228022900.

Date/timePositionNaut miles runAvg speedWind from/ knotsBaromVisibWave heightAir tempDewpointWater temp
2017-Feb-28 07:33N 49°29' E 000°07'8 8.1
2017-Feb-28 06:34N 49°35' W 000°02'1110.9
2017-Feb-28 05:34N 49°45' W 000°09'1312.7
2017-Feb-28 04:34N 49°56' W 000°19'1312.8
2017-Feb-28 03:33N 50°05' W 000°34'2713.5
2017-Feb-28 01:33N 50°30' W 000°50'1211.8
2017-Feb-28 00:33N 50°41' W 000°57'1010.0
2017-Feb-27 23:34N 50°49' W 001°06'0 0.4
2017-Feb-27 22:34N 50°49' W 001°06'0 0.0
2017-Feb-27 21:33N 50°49' W 001°06'7 6.6
2017-Feb-27 20:34N 50°43' W 001°00'1717.3
2017-Feb-27 19:33N 50°29' W 000°45'2119.7
2017-Feb-27 18:29N 50°09' W 000°31'1920.8
2017-Feb-27 17:34N 49°52' W 000°18'2121.4
2017-Feb-27 16:33N 49°34' W 000°02'7 7.1
2017-Feb-27 15:33N 49°29' E 000°07'0 0.0
2017-Feb-27 14:33N 49°29' E 000°07'0 0.0
2017-Feb-27 13:34N 49°29' E 000°07'0 0.0
2017-Feb-27 12:33N 49°29' E 000°07'0 0.0
2017-Feb-27 11:33N 49°29' E 000°07'0 0.0
2017-Feb-27 10:34N 49°29' E 000°07'0 0.0
2017-Feb-27 09:33N 49°29' E 000°07'0 0.0
2017-Feb-27 08:33N 49°29' E 000°07'0 0.0
2017-Feb-27 07:33N 49°29' E 000°07'8 8.1
2017-Feb-27 06:33N 49°35' W 000°02'1110.7
2017-Feb-27 05:33N 49°44' W 000°10'1010.5
2017-Feb-27 04:33N 49°53' W 000°20'1312.8
2017-Feb-27 03:33N 50°03' W 000°30'2712.4
2017-Feb-27 01:23N 50°28' W 000°47'1113.8
2017-Feb-27 00:33N 50°38' W 000°55'1312.7
2017-Feb-26 23:34N 50°48' W 001°07'1 0.7
2017-Feb-26 22:33N 50°49' W 001°06'0 0.0
2017-Feb-26 21:34N 50°49' W 001°06'7 6.9
2017-Feb-26 20:33N 50°43' W 000°60'2518.1
2017-Feb-26 19:11N 50°22' W 000°38'1420.2
2017-Feb-26 18:30N 50°10' W 000°29'1919.5
2017-Feb-26 17:33N 49°53' W 000°18'2020.0
2017-Feb-26 16:33N 49°35' W 000°03'9 8.8
2017-Feb-26 15:33N 49°29' E 000°07'0 0.0
2017-Feb-26 14:33N 49°29' E 000°07'0 0.0
2017-Feb-26 13:33N 49°29' E 000°07'0 0.0
2017-Feb-26 12:33N 49°29' E 000°07'0 0.0
2017-Feb-26 11:33N 49°29' E 000°07'0 0.0
2017-Feb-26 10:33N 49°29' E 000°07'0 0.0
2017-Feb-26 09:33N 49°29' E 000°07'0 0.0
2017-Feb-26 08:33N 49°29' E 000°07'0 0.0
2017-Feb-26 07:33N 49°29' E 000°07'8 7.9
2017-Feb-26 06:33N 49°34' W 000°02'1110.7
2017-Feb-26 05:33N 49°44' W 000°10'1110.8
2017-Feb-26 04:33N 49°53' W 000°18'1312.9
2017-Feb-26 03:33N 50°05' W 000°27'2812.3
2017-Feb-26 01:19N 50°29' W 000°48'912.2
2017-Feb-26 00:34N 50°37' W 000°54'1211.8
2017-Feb-25 23:34N 50°47' W 001°06'2 2.1
2017-Feb-25 22:34N 50°49' W 001°06'0 0.0
2017-Feb-25 21:33N 50°49' W 001°06'7 6.6
2017-Feb-25 20:34N 50°43' W 001°00'1918.5
2017-Feb-25 19:33N 50°28' W 000°44'2120.6
2017-Feb-25 18:33N 50°09' W 000°30'2020.3
2017-Feb-25 17:33N 49°51' W 000°15'2120.6
2017-Feb-25 16:33N 49°33' W 000°01'6 6.1
2017-Feb-25 15:33N 49°29' E 000°07'0 0.0
2017-Feb-25 14:34N 49°29' E 000°07'0 0.0
2017-Feb-25 13:34N 49°29' E 000°07'0 0.0
2017-Feb-25 12:34N 49°29' E 000°07'0 0.0
2017-Feb-25 11:34N 49°29' E 000°07'0 0.0
2017-Feb-25 10:33N 49°29' E 000°07'0 0.0
2017-Feb-25 09:34N 49°29' E 000°07'0 0.0
2017-Feb-25 08:33N 49°29' E 000°07'0 0.0
2017-Feb-25 07:33N 49°29' E 000°07'8 8.1
2017-Feb-25 06:33N 49°35' W 000°02'1211.6
2017-Feb-25 05:33N 49°45' W 000°10'1111.4
2017-Feb-25 04:34N 49°55' W 000°19'1413.7
2017-Feb-25 03:34N 50°07' W 000°29'2613.1
2017-Feb-25 01:33N 50°30' W 000°48'1211.9
2017-Feb-25 00:33N 50°41' W 000°57'10 9.7
2017-Feb-24 23:33N 50°49' W 001°06'0 0.1
2017-Feb-24 22:34N 50°49' W 001°06'0 0.0
2017-Feb-24 21:33N 50°49' W 001°06'7 7.2
2017-Feb-24 20:33N 50°43' W 000°59'1817.7
2017-Feb-24 19:33N 50°28' W 000°44'2120.6
2017-Feb-24 18:32N 50°09' W 000°30'2020.4
2017-Feb-24 17:33N 49°51' W 000°16'2120.8
2017-Feb-24 16:33N 49°33' W 000°01'6 6.0
2017-Feb-24 15:33N 49°29' E 000°07'0 0.0
2017-Feb-24 14:33N 49°29' E 000°07'0 0.0
2017-Feb-24 13:33N 49°29' E 000°07'0 0.0
2017-Feb-24 12:33N 49°29' E 000°07'0 0.0
2017-Feb-24 11:33N 49°29' E 000°07'0 0.0
2017-Feb-24 10:33N 49°29' E 000°07'0 0.0
2017-Feb-24 09:33N 49°29' E 000°07'0 0.0
2017-Feb-24 08:33N 49°29' E 000°07'0 0.0
2017-Feb-24 07:33N 49°29' E 000°07'9 8.7
2017-Feb-24 06:34N 49°35' W 000°02'1312.7
2017-Feb-24 05:33N 49°47' W 000°10'1212.3
2017-Feb-24 04:33N 49°58' W 000°20'3913.1
2017-Feb-24 01:34N 50°32' W 000°50'1312.8
2017-Feb-24 00:34N 50°43' W 001°01'7 6.7
2017-Feb-23 23:33N 50°49' W 001°06'0 0.0
2017-Feb-23 22:33N 50°49' W 001°06'0 0.5
2017-Feb-23 21:33N 50°49' W 001°07'1615.6
2017-Feb-23 20:34N 50°37' W 000°51'2018.5
2017-Feb-23 19:28N 50°22' W 000°29'1617.5
2017-Feb-23 18:33N 50°07' W 000°20'1817.7
2017-Feb-23 17:34N 49°50' W 000°12'1919.3
2017-Feb-23 16:33N 49°32' W 000°00'6 5.6
2017-Feb-23 15:33N 49°29' E 000°07'0 0.0
2017-Feb-23 14:33N 49°29' E 000°07'0 0.0
2017-Feb-23 13:33N 49°29' E 000°07'0 0.0
2017-Feb-23 12:33N 49°29' E 000°07'0 0.0
2017-Feb-23 11:33N 49°29' E 000°07'0 0.0
2017-Feb-23 10:33N 49°29' E 000°07'0 0.0
2017-Feb-23 09:33N 49°29' E 000°07'0 0.0
2017-Feb-23 08:33N 49°29' E 000°07'0 0.0
2017-Feb-23 07:33N 49°29' E 000°07'0 0.0
2017-Feb-23 06:33N 49°29' E 000°07'0 0.0
2017-Feb-23 05:33N 49°29' E 000°07'9 8.6
2017-Feb-23 04:34N 49°35' W 000°03'1818.1
2017-Feb-23 03:33N 49°51' W 000°17'1818.2
2017-Feb-23 02:33N 50°06' W 000°32'2418.4
2017-Feb-23 01:16N 50°26' W 000°52'1318.5
2017-Feb-23 00:34N 50°38' W 001°01'1111.1
2017-Feb-22 23:33N 50°49' W 001°06'0 0.0
2017-Feb-22 22:33N 50°49' W 001°06'0 0.0
2017-Feb-22 21:33N 50°49' W 001°06'9 8.6
2017-Feb-22 20:34N 50°42' W 000°58'3221.2
2017-Feb-22 19:04N 50°14' W 000°35'1121.0
2017-Feb-22 18:33N 50°04' W 000°29'2020.4
2017-Feb-22 17:33N 49°47' W 000°11'1919.4
2017-Feb-22 16:33N 49°30' E 000°03'3 2.6
2017-Feb-22 15:34N 49°29' E 000°07'0 0.0
2017-Feb-22 14:33N 49°29' E 000°07'0 0.0
2017-Feb-22 13:33N 49°29' E 000°07'0 0.0
2017-Feb-22 12:33N 49°29' E 000°07'0 0.0
2017-Feb-22 11:33N 49°29' E 000°07'0 0.0
2017-Feb-22 10:33N 49°29' E 000°07'0 0.0
2017-Feb-22 09:33N 49°29' E 000°07'0 0.0
2017-Feb-22 08:33N 49°29' E 000°07'0 0.0
2017-Feb-22 07:33N 49°29' E 000°07'8 8.0
2017-Feb-22 06:33N 49°35' W 000°02'1110.7
2017-Feb-22 05:33N 49°44' W 000°09'1010.3
2017-Feb-22 04:33N 49°54' W 000°16'1110.8
2017-Feb-22 03:33N 50°03' W 000°26'1110.4
2017-Feb-22 02:27N 50°12' W 000°35'2714.1
2017-Feb-22 00:34N 50°36' W 000°54'1312.6
2017-Feb-21 23:33N 50°47' W 001°06'2 2.2
2017-Feb-21 22:34N 50°49' W 001°06'0 0.0
2017-Feb-21 21:34N 50°49' W 001°06'0 0.0
2017-Feb-21 20:33N 50°49' W 001°06'0 0.0
2017-Feb-21 19:34N 50°49' W 001°06'0 0.0
2017-Feb-21 18:33N 50°49' W 001°06'0 0.0
2017-Feb-21 17:34N 50°49' W 001°06'0 0.1
2017-Feb-21 16:34N 50°49' W 001°06'1110.7
2017-Feb-21 15:33N 50°40' W 000°56'3818.8
2017-Feb-21 13:33N 50°07' W 000°29'2019.8
2017-Feb-21 12:33N 49°48' W 000°17'1919.4
2017-Feb-21 11:33N 49°31' W 000°03'7 6.8
2017-Feb-21 10:33N 49°29' E 000°07'0 0.0
2017-Feb-21 09:33N 49°29' E 000°07'0 0.0
2017-Feb-21 08:33N 49°29' E 000°07'0 0.0
2017-Feb-21 07:33N 49°29' E 000°07'8 8.4
2017-Feb-21 06:33N 49°35' W 000°03'1211.6
2017-Feb-21 05:33N 49°45' W 000°12'1110.9
2017-Feb-21 04:33N 49°55' W 000°19'1211.5
2017-Feb-21 03:32N 50°05' W 000°26'2813.1
2017-Feb-21 01:25N 50°29' W 000°48'1213.7
2017-Feb-21 00:33N 50°40' W 000°56'1110.9
2017-Feb-20 23:33N 50°49' W 001°07'0 0.4
2017-Feb-20 22:33N 50°49' W 001°06'0 0.0
2017-Feb-20 21:33N 50°49' W 001°06'6 5.8
2017-Feb-20 20:33N 50°44' W 001°02'1918.6
2017-Feb-20 19:33N 50°28' W 000°45'2420.1
2017-Feb-20 18:23N 50°07' W 000°29'1720.4
2017-Feb-20 17:33N 49°52' W 000°17'2020.3
2017-Feb-20 16:33N 49°34' W 000°02'8 7.6
2017-Feb-20 15:33N 49°29' E 000°07'0 0.0
2017-Feb-20 14:33N 49°29' E 000°07'0 0.0
2017-Feb-20 13:34N 49°29' E 000°07'0 0.0
2017-Feb-20 12:34N 49°29' E 000°07'0 0.0
2017-Feb-20 11:34N 49°29' E 000°07'0 0.0
2017-Feb-20 10:33N 49°29' E 000°07'0 0.0
2017-Feb-20 09:34N 49°29' E 000°07'0 0.0
2017-Feb-20 08:34N 49°29' E 000°07'0 0.2
2017-Feb-20 07:34N 49°29' E 000°06'9 9.1
2017-Feb-20 06:34N 49°35' W 000°05'9 8.8
2017-Feb-20 05:34N 49°42' W 000°12'9 9.3
2017-Feb-20 04:33N 49°50' W 000°20'1312.9
2017-Feb-20 03:34N 50°02' W 000°24'1413.5
2017-Feb-20 02:32N 50°15' W 000°34'1813.5
2017-Feb-20 01:14N 50°30' W 000°48'913.7
2017-Feb-20 00:34N 50°38' W 000°55'1211.6
2017-Feb-19 23:33N 50°47' W 001°06'2 1.6
2017-Feb-19 22:34N 50°49' W 001°06'0 0.0
2017-Feb-19 21:34N 50°49' W 001°06'7 6.5
2017-Feb-19 20:33N 50°43' W 001°00'2019.0
2017-Feb-19 19:30N 50°26' W 000°43'1919.8
2017-Feb-19 18:33N 50°09' W 000°31'2020.1
2017-Feb-19 17:33N 49°51' W 000°16'2020.4
2017-Feb-19 16:33N 49°34' W 000°01'7 6.8
2017-Feb-19 15:33N 49°29' E 000°07'0 0.0
2017-Feb-19 14:34N 49°29' E 000°07'0 0.0
2017-Feb-19 13:34N 49°29' E 000°07'0 0.0
2017-Feb-19 12:33N 49°29' E 000°07'0 0.0
2017-Feb-19 11:33N 49°29' E 000°07'0 0.0
2017-Feb-19 10:34N 49°29' E 000°07'0 0.0
2017-Feb-19 09:33N 49°29' E 000°07'0 0.0
2017-Feb-19 08:33N 49°29' E 000°07'0 0.0
2017-Feb-19 07:33N 49°29' E 000°07'8 7.9
2017-Feb-19 06:33N 49°34' W 000°02'4 4.4
2017-Feb-19 05:34N 49°38' W 000°05'1413.6
2017-Feb-19 04:34N 49°50' W 000°15'1313.4
2017-Feb-19 03:33N 50°02' W 000°24'1413.6
2017-Feb-19 02:33N 50°15' W 000°32'1413.8
2017-Feb-19 01:32N 50°27' W 000°43'1414.2
2017-Feb-19 00:33N 50°39' W 000°55'1212.1
2017-Feb-18 23:33N 50°48' W 001°07'1 0.8
2017-Feb-18 22:34N 50°49' W 001°06'0 0.0
2017-Feb-18 21:34N 50°49' W 001°06'9 9.2
2017-Feb-18 20:34N 50°41' W 000°57'2322.6
2017-Feb-18 19:33N 50°21' W 000°42'2323.5
2017-Feb-18 18:34N 50°01' W 000°23'2322.8
2017-Feb-18 17:33N 49°40' W 000°07'1111.4
2017-Feb-18 16:33N 49°30' E 000°01'4 3.8
2017-Feb-18 15:33N 49°29' E 000°07'0 0.0
2017-Feb-18 14:33N 49°29' E 000°07'0 0.0
2017-Feb-18 13:33N 49°29' E 000°07'0 0.0
2017-Feb-18 12:33N 49°29' E 000°07'0 0.0
2017-Feb-18 11:33N 49°29' E 000°07'0 0.0
2017-Feb-18 10:33N 49°29' E 000°07'0 0.0
2017-Feb-18 09:33N 49°29' E 000°07'0 0.0
2017-Feb-18 08:33N 49°29' E 000°07'  

Dump ship's entire track history